createdAt,value
2018-09-04T00:02:11.639Z,6.53
2018-09-04T00:04:39.027Z,5.97
2018-09-04T00:07:06.405Z,7.43
2018-09-04T00:09:33.750Z,7.43
2018-09-04T00:12:01.090Z,7.33
2018-09-04T00:14:28.455Z,6.13
2018-09-04T00:16:55.784Z,7.37
2018-09-04T00:19:23.061Z,6.43
2018-09-04T00:21:50.327Z,6.73
2018-09-04T00:24:17.578Z,6.80
2018-09-04T00:26:44.891Z,6.10
2018-09-04T00:29:12.174Z,6.20
2018-09-04T00:31:39.564Z,6.77
2018-09-04T00:34:06.769Z,5.63
2018-09-04T00:36:34.086Z,6.27
2018-09-04T00:39:01.353Z,5.90
2018-09-04T00:41:28.623Z,5.90
2018-09-04T00:43:55.888Z,5.90
2018-09-04T00:46:23.172Z,6.07
2018-09-04T00:48:50.437Z,7.87
2018-09-04T00:51:17.667Z,6.53
2018-09-04T00:53:45.058Z,7.00
2018-09-04T00:56:12.371Z,7.03
2018-09-04T00:58:39.633Z,6.33
2018-09-04T01:01:07.189Z,6.50
2018-09-04T01:03:34.458Z,7.70
2018-09-04T01:06:03.312Z,8.40
2018-09-04T01:08:30.613Z,6.80
2018-09-04T01:10:57.988Z,6.50
2018-09-04T01:13:25.330Z,7.20
2018-09-04T01:15:52.601Z,6.40
2018-09-04T01:18:19.866Z,7.70
2018-09-04T01:20:47.166Z,7.10
2018-09-04T01:23:14.405Z,6.80
2018-09-04T01:25:41.636Z,7.50
2018-09-04T01:28:09.406Z,7.60
2018-09-04T01:30:36.685Z,7.47
2018-09-04T01:33:04.218Z,7.40
2018-09-04T01:35:31.607Z,8.17
2018-09-04T01:37:58.889Z,7.10
2018-09-04T01:40:26.107Z,7.87
2018-09-04T01:42:53.402Z,8.30
2018-09-04T01:45:20.817Z,7.10
2018-09-04T01:47:48.272Z,7.17
2018-09-04T01:50:15.582Z,6.47
2018-09-04T01:52:42.826Z,6.57
2018-09-04T01:55:10.149Z,8.00
2018-09-04T01:59:57.180Z,6.37
2018-09-04T02:02:24.479Z,6.40
2018-09-04T02:04:51.735Z,8.43
2018-09-04T02:07:19.037Z,7.30
2018-09-04T02:09:46.345Z,6.53
2018-09-04T02:12:13.654Z,7.57
2018-09-04T02:14:40.987Z,6.47
2018-09-04T02:17:08.471Z,6.40
2018-09-04T02:19:35.747Z,7.07
2018-09-04T02:22:03.083Z,7.60
2018-09-04T02:24:30.412Z,6.93
2018-09-04T02:26:57.676Z,6.17
2018-09-04T02:29:24.944Z,6.00
2018-09-04T02:31:52.263Z,6.60
2018-09-04T02:34:19.554Z,6.53
2018-09-04T02:36:46.846Z,7.67
2018-09-04T02:39:14.168Z,6.90
2018-09-04T02:41:41.547Z,6.97
2018-09-04T02:44:08.969Z,6.60
2018-09-04T02:46:36.581Z,7.73
2018-09-04T02:49:03.936Z,8.43
2018-09-04T02:51:31.244Z,8.43
2018-09-04T02:53:58.551Z,8.27
2018-09-04T02:56:25.842Z,7.23
2018-09-04T02:58:59.475Z,6.80
2018-09-04T03:01:26.917Z,7.00
2018-09-04T03:03:54.140Z,6.60
2018-09-04T03:06:21.429Z,6.37
2018-09-04T03:08:48.679Z,6.97
2018-09-04T03:11:16.054Z,7.17
2018-09-04T03:13:43.354Z,7.20
2018-09-04T03:16:10.549Z,7.73
2018-09-04T03:18:37.882Z,8.40
2018-09-04T03:23:57.723Z,8.00
2018-09-04T03:26:25.045Z,8.07
2018-09-04T03:28:52.242Z,7.03
2018-09-04T03:31:19.519Z,8.40
2018-09-04T03:33:46.866Z,9.70
2018-09-04T03:36:14.175Z,8.90
2018-09-04T03:38:41.401Z,6.77
2018-09-04T03:41:08.713Z,8.03
2018-09-04T03:43:35.972Z,6.50
2018-09-04T03:46:03.259Z,7.27
2018-09-04T03:48:30.563Z,7.03
2018-09-04T03:50:57.814Z,7.57
2018-09-04T03:53:25.052Z,6.73
2018-09-04T03:55:52.305Z,7.40
2018-09-04T03:58:19.592Z,7.43
2018-09-04T04:00:46.831Z,6.90
2018-09-04T04:03:14.129Z,7.10
2018-09-04T04:05:41.387Z,8.17
2018-09-04T04:08:08.667Z,7.80
2018-09-04T04:10:35.967Z,8.03
2018-09-04T04:13:03.624Z,7.27
2018-09-04T04:15:31.134Z,7.70
2018-09-04T04:17:58.435Z,7.30
2018-09-04T04:20:25.771Z,7.83
2018-09-04T04:22:53.077Z,8.03
2018-09-04T04:25:20.344Z,7.83
2018-09-04T04:27:47.643Z,8.13
2018-09-04T04:30:14.978Z,8.93
2018-09-04T04:32:42.373Z,9.00
2018-09-04T04:35:09.754Z,10.50
2018-09-04T04:37:36.974Z,8.93
2018-09-04T04:40:04.853Z,7.20
2018-09-04T04:42:32.072Z,9.48
2018-09-04T04:44:59.307Z,8.07
2018-09-04T04:47:32.198Z,8.13
2018-09-04T04:49:59.455Z,8.87
2018-09-04T04:52:26.798Z,8.63
2018-09-04T04:54:54.080Z,7.73
2018-09-04T04:57:21.310Z,7.77
2018-09-04T04:59:48.557Z,8.13
2018-09-04T05:02:15.806Z,7.57
2018-09-04T05:04:43.123Z,7.23
2018-09-04T05:07:10.398Z,8.13
2018-09-04T05:09:37.706Z,7.90
2018-09-04T05:12:05.299Z,7.78
2018-09-04T05:14:32.540Z,7.97
2018-09-04T05:16:59.806Z,8.77
2018-09-04T05:19:27.062Z,6.77
2018-09-04T05:21:54.321Z,8.23
2018-09-04T05:24:21.650Z,7.97
2018-09-04T05:26:48.904Z,8.08
2018-09-04T05:29:16.563Z,7.62
2018-09-04T05:31:47.201Z,7.87
2018-09-04T05:34:14.516Z,8.27
2018-09-04T05:36:41.839Z,8.55
2018-09-04T05:39:09.745Z,8.00
2018-09-04T05:41:37.049Z,8.73
2018-09-04T05:44:04.423Z,8.77
2018-09-04T05:46:37.451Z,7.90
2018-09-04T05:49:04.938Z,8.05
2018-09-04T05:51:32.244Z,8.38
2018-09-04T05:53:59.889Z,7.97
2018-09-04T05:56:27.218Z,8.90
2018-09-04T05:58:54.490Z,9.00
2018-09-04T06:01:21.902Z,7.10
2018-09-04T06:03:49.173Z,7.83
2018-09-04T06:06:16.521Z,8.27
2018-09-04T06:08:43.818Z,8.37
2018-09-04T06:11:11.108Z,9.40
2018-09-04T06:13:38.426Z,7.60
2018-09-04T06:16:05.763Z,8.90
2018-09-04T06:18:33.017Z,8.93
2018-09-04T06:21:00.310Z,8.53
2018-09-04T06:23:27.748Z,8.50
2018-09-04T06:25:55.013Z,7.90
2018-09-04T06:28:22.303Z,7.83
2018-09-04T06:30:49.665Z,7.03
2018-09-04T06:33:17.050Z,8.40
2018-09-04T06:35:44.332Z,7.30
2018-09-04T06:38:11.635Z,7.03
2018-09-04T06:40:38.917Z,7.20
2018-09-04T06:43:06.186Z,7.70
2018-09-04T06:45:33.523Z,7.73
2018-09-04T06:48:00.833Z,8.80
2018-09-04T06:50:28.115Z,9.40
2018-09-04T06:52:55.338Z,8.30
2018-09-04T06:55:22.590Z,7.80
2018-09-04T06:57:49.853Z,8.67
2018-09-04T07:00:17.091Z,9.50
2018-09-04T07:02:44.354Z,9.43
2018-09-04T07:05:12.051Z,8.30
2018-09-04T07:07:39.419Z,8.43
2018-09-04T07:10:06.939Z,8.00
2018-09-04T07:12:34.212Z,8.60
2018-09-04T07:15:01.655Z,8.23
2018-09-04T07:17:28.894Z,8.17
2018-09-04T07:19:56.229Z,7.90
2018-09-04T07:22:23.525Z,7.30
2018-09-04T07:24:50.811Z,7.60
2018-09-04T07:27:18.099Z,7.60
2018-09-04T07:29:45.389Z,7.67
2018-09-04T07:32:12.676Z,9.20
2018-09-04T07:34:39.966Z,7.87
2018-09-04T07:37:07.209Z,8.70
2018-09-04T07:39:34.535Z,9.03
2018-09-04T07:42:01.909Z,8.97
2018-09-04T07:44:29.132Z,8.80
2018-09-04T07:46:56.401Z,7.67
2018-09-04T07:49:23.697Z,6.83
2018-09-04T07:51:50.972Z,9.97
2018-09-04T07:54:18.248Z,9.17
2018-09-04T07:56:45.522Z,8.10
2018-09-04T07:59:12.812Z,8.60
2018-09-04T08:01:40.064Z,8.20
2018-09-04T08:04:07.350Z,8.43
2018-09-04T08:06:34.613Z,8.60
2018-09-04T08:09:01.935Z,7.07
2018-09-04T08:11:29.313Z,9.20
2018-09-04T08:13:56.541Z,8.97
2018-09-04T08:16:23.866Z,7.93
2018-09-04T08:18:51.215Z,8.17
2018-09-04T08:21:18.501Z,8.90
2018-09-04T08:23:45.780Z,8.67
2018-09-04T08:26:13.077Z,10.30
2018-09-04T08:28:40.304Z,9.30
2018-09-04T08:31:07.562Z,9.40
2018-09-04T08:33:34.864Z,10.83
2018-09-04T08:36:02.152Z,14.97
2018-09-04T08:38:29.413Z,12.30
2018-09-04T08:40:56.687Z,11.63
2018-09-04T08:43:24.025Z,13.30
2018-09-04T08:45:51.408Z,14.40
2018-09-04T08:48:20.780Z,11.60
2018-09-04T08:50:49.972Z,11.70
2018-09-04T08:53:18.446Z,59.53
2018-09-04T08:55:45.762Z,23.60
2018-09-04T08:58:13.058Z,14.03
2018-09-04T09:00:40.432Z,13.53
2018-09-04T09:03:08.092Z,11.63
2018-09-04T09:05:35.675Z,12.20
2018-09-04T09:08:02.905Z,11.67
2018-09-04T09:10:30.184Z,15.47
2018-09-04T09:12:57.497Z,24.27
2018-09-04T09:15:24.769Z,11.53
2018-09-04T09:17:52.069Z,10.77
2018-09-04T09:20:19.344Z,11.10
2018-09-04T09:22:46.666Z,10.50
2018-09-04T09:25:13.978Z,10.37
2018-09-04T09:27:41.349Z,11.37
2018-09-04T09:30:08.657Z,10.63
2018-09-04T09:32:35.915Z,8.53
2018-09-04T09:35:03.282Z,10.20
2018-09-04T09:37:30.619Z,11.10
2018-09-04T09:39:57.973Z,9.63
2018-09-04T09:42:25.272Z,10.10
2018-09-04T09:44:52.569Z,10.17
2018-09-04T09:47:19.903Z,9.50
2018-09-04T09:49:47.275Z,10.00
2018-09-04T09:52:14.559Z,10.30
2018-09-04T09:54:42.412Z,10.40
2018-09-04T09:57:09.679Z,10.50
2018-09-04T09:59:36.997Z,8.23
2018-09-04T10:02:12.976Z,7.57
2018-09-04T10:04:40.703Z,6.30
2018-09-04T10:07:08.129Z,7.43
2018-09-04T10:09:35.488Z,7.60
2018-09-04T10:12:02.873Z,7.23
2018-09-04T10:14:30.210Z,5.50
2018-09-04T10:16:57.597Z,5.00
2018-09-04T10:19:24.927Z,6.07
2018-09-04T10:21:52.300Z,6.60
2018-09-04T10:24:23.340Z,5.47
2018-09-04T10:26:50.718Z,7.33
2018-09-04T10:29:17.998Z,8.33
2018-09-04T10:31:45.530Z,5.93
2018-09-04T10:34:14.702Z,5.70
2018-09-04T10:36:42.303Z,7.00
2018-09-04T10:40:14.393Z,7.50
2018-09-04T10:42:41.658Z,6.47
2018-09-04T10:45:13.542Z,5.67
2018-09-04T10:47:40.841Z,6.07
2018-09-04T10:50:08.170Z,4.50
2018-09-04T10:52:35.408Z,3.80
2018-09-04T10:55:02.781Z,8.53
2018-09-04T10:57:31.609Z,3.90
2018-09-04T10:59:58.886Z,4.50
2018-09-04T11:02:35.175Z,4.17
2018-09-04T11:05:03.320Z,6.10
2018-09-04T11:07:30.655Z,6.20
2018-09-04T11:09:58.016Z,6.60
2018-09-04T11:12:25.244Z,5.60
2018-09-04T11:14:52.515Z,6.07
2018-09-04T11:17:19.717Z,6.63
2018-09-04T11:19:46.980Z,6.80
2018-09-04T11:22:14.265Z,5.83
2018-09-04T11:24:41.474Z,4.80
2018-09-04T11:27:08.839Z,4.80
2018-09-04T11:29:36.216Z,5.00
2018-09-04T11:32:03.678Z,4.73
2018-09-04T11:34:31.036Z,4.23
2018-09-04T11:36:58.329Z,4.50
2018-09-04T11:39:25.611Z,4.43
2018-09-04T11:41:52.868Z,4.43
2018-09-04T11:44:20.183Z,4.57
2018-09-04T11:46:47.457Z,4.53
2018-09-04T11:49:14.685Z,5.27
2018-09-04T11:51:41.924Z,6.27
2018-09-04T11:54:09.268Z,5.70
2018-09-04T11:56:40.326Z,5.73
2018-09-04T11:59:07.742Z,5.47
2018-09-04T12:01:36.072Z,5.90
2018-09-04T12:04:03.451Z,5.33
2018-09-04T12:06:30.982Z,5.13
2018-09-04T12:08:58.272Z,5.33
2018-09-04T12:11:25.572Z,6.00
2018-09-04T12:13:52.919Z,15.00
2018-09-04T12:16:20.202Z,10.33
2018-09-04T12:18:47.551Z,5.30
2018-09-04T12:21:14.915Z,5.63
2018-09-04T12:23:42.252Z,5.00
2018-09-04T12:26:10.726Z,4.73
2018-09-04T12:28:37.967Z,4.40
2018-09-04T12:31:11.767Z,4.17
2018-09-04T12:33:39.066Z,4.13
2018-09-04T12:36:06.457Z,5.20
2018-09-04T12:38:38.243Z,5.00
2018-09-04T12:41:11.319Z,4.60
2018-09-04T12:43:38.634Z,5.60
2018-09-04T12:46:06.370Z,5.33
2018-09-04T12:48:33.609Z,6.10
2018-09-04T12:51:01.992Z,5.50
2018-09-04T12:53:30.843Z,5.00
2018-09-04T12:55:58.247Z,5.23
2018-09-04T12:58:25.493Z,4.70
2018-09-04T13:00:53.622Z,4.97
2018-09-04T13:03:23.065Z,4.03
2018-09-04T13:05:50.407Z,4.20
2018-09-04T13:08:18.714Z,4.53
2018-09-04T13:10:45.991Z,4.33
2018-09-04T13:13:13.263Z,4.40
2018-09-04T13:15:42.265Z,4.27
2018-09-04T13:18:09.659Z,4.70
2018-09-04T13:20:36.975Z,4.80
2018-09-04T13:23:04.546Z,4.63
2018-09-04T13:25:31.859Z,4.20
2018-09-04T13:27:59.176Z,4.67
2018-09-04T13:30:26.489Z,4.10
2018-09-04T13:32:53.715Z,5.33
2018-09-04T13:35:21.014Z,4.77
2018-09-04T13:37:48.603Z,5.00
2018-09-04T13:40:16.052Z,4.60
2018-09-04T13:42:43.376Z,5.67
2018-09-04T13:45:10.622Z,5.00
2018-09-04T13:47:37.930Z,4.33
2018-09-04T13:50:05.292Z,4.63
2018-09-04T13:52:32.872Z,4.70
2018-09-04T13:55:00.166Z,5.63
2018-09-04T13:57:28.461Z,4.80
2018-09-04T13:59:55.978Z,5.20
2018-09-04T14:02:23.327Z,5.40
2018-09-04T14:04:50.637Z,5.30
2018-09-04T14:07:17.935Z,4.97
2018-09-04T14:09:45.261Z,5.07
2018-09-04T14:12:12.934Z,5.70
2018-09-04T14:14:40.214Z,5.50
2018-09-04T14:17:09.795Z,5.70
2018-09-04T14:19:37.164Z,5.47
2018-09-04T14:22:04.682Z,4.70
2018-09-04T14:24:31.934Z,5.67
2018-09-04T14:26:59.299Z,4.60
2018-09-04T14:30:15.026Z,4.87
2018-09-04T14:31:53.874Z,4.73
2018-09-04T14:34:21.403Z,4.40
2018-09-04T14:36:48.926Z,5.07
2018-09-04T14:39:16.074Z,5.00
2018-09-04T14:41:43.396Z,5.43
2018-09-04T14:44:10.857Z,4.40
2018-09-04T14:46:38.138Z,5.10
2018-09-04T14:49:16.366Z,4.90
2018-09-04T14:51:43.594Z,4.30
2018-09-04T14:54:11.319Z,4.87
2018-09-04T14:56:39.401Z,4.20
2018-09-04T14:59:06.756Z,5.17
2018-09-04T15:01:34.035Z,5.63
2018-09-04T15:04:01.366Z,5.20
2018-09-04T15:06:28.677Z,4.93
2018-09-04T15:08:56.024Z,4.67
2018-09-04T15:11:23.352Z,5.00
2018-09-04T15:13:50.626Z,4.83
2018-09-04T15:16:17.886Z,5.17
2018-09-04T15:18:45.248Z,4.57
2018-09-04T15:21:12.565Z,5.10
2018-09-04T15:23:39.937Z,4.57
2018-09-04T15:26:07.280Z,4.40
2018-09-04T15:28:34.554Z,4.93
2018-09-04T15:31:01.899Z,4.70
2018-09-04T15:33:29.248Z,5.63
2018-09-04T15:35:56.514Z,5.97
2018-09-04T15:38:23.780Z,6.10
2018-09-04T15:40:51.131Z,6.10
2018-09-04T15:43:18.484Z,6.77
2018-09-04T15:45:45.759Z,5.60
2018-09-04T15:48:12.994Z,6.57
2018-09-04T15:50:40.295Z,8.43
2018-09-04T15:53:07.628Z,6.90
2018-09-04T15:55:34.882Z,6.40
2018-09-04T15:58:02.175Z,6.47
2018-09-04T16:00:29.485Z,5.70
2018-09-04T16:02:56.952Z,6.90
2018-09-04T16:05:24.330Z,7.30
2018-09-04T16:07:51.610Z,6.90
2018-09-04T16:10:18.956Z,7.80
2018-09-04T16:12:46.443Z,6.53
2018-09-04T16:15:13.772Z,6.83
2018-09-04T16:17:41.093Z,6.77
2018-09-04T16:20:08.401Z,7.20
2018-09-04T16:22:35.768Z,7.40
2018-09-04T16:25:03.041Z,6.70
2018-09-04T16:27:30.310Z,7.43
2018-09-04T16:29:57.621Z,8.07
2018-09-04T16:32:24.879Z,6.07
2018-09-04T16:34:52.235Z,6.83
2018-09-04T16:37:19.577Z,7.57
2018-09-04T16:39:46.897Z,6.43
2018-09-04T16:45:06.743Z,7.20
2018-09-04T16:47:34.052Z,8.00
2018-09-04T16:50:01.329Z,6.07
2018-09-04T16:52:28.644Z,7.97
2018-09-04T16:54:56.171Z,8.40
2018-09-04T16:57:23.875Z,8.70
2018-09-04T16:59:51.154Z,8.53
2018-09-04T17:02:18.796Z,8.10
2018-09-04T17:04:46.120Z,8.77
2018-09-04T17:07:13.396Z,8.17
2018-09-04T17:09:40.872Z,8.47
2018-09-04T17:12:08.177Z,9.23
2018-09-04T17:14:35.378Z,7.60
2018-09-04T17:18:32.236Z,8.20
2018-09-04T17:20:59.433Z,7.60
2018-09-04T17:23:26.698Z,7.83
2018-09-04T17:25:53.969Z,7.97
2018-09-04T17:28:21.209Z,7.47
2018-09-04T17:30:48.514Z,6.87
2018-09-04T17:33:15.907Z,7.00
2018-09-04T17:35:43.242Z,8.43
2018-09-04T17:38:10.526Z,7.37
2018-09-04T17:40:37.775Z,7.50
2018-09-04T17:43:08.681Z,7.57
2018-09-04T17:45:36.237Z,7.40
2018-09-04T17:48:03.795Z,7.50
2018-09-04T17:50:31.097Z,7.70
2018-09-04T17:52:58.386Z,7.63
2018-09-04T17:55:25.669Z,7.80
2018-09-04T17:57:52.982Z,7.33
2018-09-04T18:00:20.290Z,7.30
2018-09-04T18:02:47.560Z,7.70
2018-09-04T18:05:14.919Z,7.70
2018-09-04T18:07:42.197Z,7.43
2018-09-04T18:10:09.496Z,6.90
2018-09-04T18:12:36.764Z,8.00
2018-09-04T18:15:04.471Z,7.50
2018-09-04T18:17:41.365Z,8.40
2018-09-04T18:20:08.667Z,7.90
2018-09-04T18:22:35.947Z,7.83
2018-09-04T18:25:03.309Z,7.73
2018-09-04T18:27:37.522Z,9.37
2018-09-04T18:30:07.939Z,9.30
2018-09-04T18:32:35.421Z,7.37
2018-09-04T18:35:02.800Z,7.97
2018-09-04T18:37:30.203Z,8.57
2018-09-04T18:39:57.555Z,8.40
2018-09-04T18:42:24.863Z,9.00
2018-09-04T18:44:52.175Z,8.37
2018-09-04T18:47:19.490Z,8.33
2018-09-04T18:49:46.781Z,8.43
2018-09-04T18:52:14.072Z,7.10
2018-09-04T18:54:41.462Z,8.17
2018-09-04T18:57:08.836Z,9.37
2018-09-04T18:59:36.260Z,9.23
2018-09-04T19:02:03.628Z,8.10
2018-09-04T19:04:30.969Z,8.40
2018-09-04T19:06:58.734Z,7.90
2018-09-04T19:09:26.155Z,7.87
2018-09-04T19:11:53.512Z,9.60
2018-09-04T19:14:20.985Z,8.20
2018-09-04T19:16:48.360Z,8.10
2018-09-04T19:19:15.678Z,8.17
2018-09-04T19:21:42.980Z,8.30
2018-09-04T19:24:10.505Z,8.60
2018-09-04T19:26:37.861Z,11.27
2018-09-04T19:29:05.476Z,9.63
2018-09-04T19:31:32.785Z,9.43
2018-09-04T19:34:00.218Z,9.30
2018-09-04T19:36:29.207Z,9.10
2018-09-04T19:38:56.510Z,8.73
2018-09-04T19:41:23.841Z,8.30
2018-09-04T19:43:51.203Z,8.80
2018-09-04T19:46:18.470Z,8.27
2018-09-04T19:48:45.822Z,7.90
2018-09-04T19:51:13.261Z,9.40
2018-09-04T19:53:41.663Z,8.03
2018-09-04T19:56:08.988Z,9.43
2018-09-04T19:58:36.307Z,8.80
2018-09-04T20:01:03.965Z,9.27
2018-09-04T20:03:31.276Z,9.73
2018-09-04T20:06:00.649Z,8.90
2018-09-04T20:08:28.129Z,9.60
2018-09-04T20:10:55.469Z,8.93
2018-09-04T20:13:22.860Z,9.43
2018-09-04T20:15:50.121Z,10.37
2018-09-04T20:18:17.421Z,9.27
2018-09-04T20:20:44.904Z,10.20
2018-09-04T20:23:12.230Z,9.57
2018-09-04T20:25:39.499Z,9.83
2018-09-04T20:28:06.830Z,10.80
2018-09-04T20:30:34.131Z,10.60
2018-09-04T20:40:36.730Z,10.60
2018-09-04T20:43:03.989Z,10.40
2018-09-04T20:45:31.265Z,9.73
2018-09-04T20:47:58.582Z,9.73
2018-09-04T20:50:26.039Z,9.90
2018-09-04T20:52:53.424Z,10.60
2018-09-04T20:55:20.714Z,10.50
2018-09-04T20:57:59.644Z,10.53
2018-09-04T21:00:38.548Z,10.10
2018-09-04T21:03:17.516Z,9.40
2018-09-04T21:05:57.239Z,10.33
2018-09-04T21:08:36.890Z,10.10
2018-09-04T21:11:04.224Z,11.13
2018-09-04T21:13:31.473Z,10.77
2018-09-04T21:15:58.826Z,12.30
2018-09-04T21:18:26.069Z,13.40
2018-09-04T21:20:53.448Z,11.00
2018-09-04T21:23:20.804Z,11.70
2018-09-04T21:25:48.168Z,11.43
2018-09-04T21:28:15.489Z,11.70
2018-09-04T21:30:42.816Z,11.40
2018-09-04T21:33:10.136Z,10.93
2018-09-04T21:35:37.504Z,11.20
2018-09-04T21:38:05.207Z,10.90
2018-09-04T21:40:32.491Z,11.37
2018-09-04T21:42:59.790Z,11.37
2018-09-04T21:45:27.101Z,10.13
2018-09-04T21:47:54.305Z,11.47
2018-09-04T21:50:21.668Z,11.23
2018-09-04T21:52:49.002Z,10.00
2018-09-04T21:55:28.932Z,11.07
2018-09-04T21:57:56.152Z,11.63
2018-09-04T22:00:27.345Z,10.50
2018-09-04T22:02:55.835Z,11.20
2018-09-04T22:05:24.103Z,10.50
2018-09-04T22:07:51.734Z,11.17
2018-09-04T22:10:19.011Z,10.00
2018-09-04T22:12:46.279Z,11.60
2018-09-04T22:15:13.544Z,10.93
2018-09-04T22:17:40.901Z,11.07
2018-09-04T22:20:08.303Z,10.57
2018-09-04T22:22:35.725Z,10.37
2018-09-04T22:25:03.081Z,12.13
2018-09-04T22:27:30.476Z,10.50
2018-09-04T22:29:57.732Z,10.07
2018-09-04T22:32:25.110Z,9.43
2018-09-04T22:34:52.428Z,10.07
2018-09-04T22:37:19.737Z,10.47
2018-09-04T22:39:47.056Z,10.60
2018-09-04T22:42:14.365Z,10.90
2018-09-04T22:44:41.619Z,10.07
2018-09-04T22:47:08.865Z,10.27
2018-09-04T22:49:36.752Z,10.20
2018-09-04T22:52:04.213Z,10.63
2018-09-04T22:54:31.507Z,10.77
2018-09-04T22:56:58.819Z,10.73
2018-09-04T22:59:26.956Z,10.37
2018-09-04T23:01:54.296Z,11.30
2018-09-04T23:04:21.880Z,11.27
2018-09-04T23:06:49.268Z,11.50
2018-09-04T23:09:16.589Z,10.90
2018-09-04T23:11:43.886Z,10.87
2018-09-04T23:14:11.198Z,10.43
2018-09-04T23:16:38.443Z,9.53
2018-09-04T23:19:06.034Z,10.90
2018-09-04T23:21:33.331Z,9.87
2018-09-04T23:24:00.754Z,9.87
2018-09-04T23:26:28.201Z,10.80
2018-09-04T23:28:55.423Z,11.43
2018-09-04T23:31:22.754Z,12.47
2018-09-04T23:33:50.059Z,10.87
2018-09-04T23:36:17.677Z,11.33
2018-09-04T23:38:44.958Z,10.73
2018-09-04T23:41:12.296Z,10.37
2018-09-04T23:43:39.654Z,10.80
2018-09-04T23:46:06.926Z,11.60
2018-09-04T23:48:34.278Z,10.53
2018-09-04T23:51:02.338Z,11.37
2018-09-04T23:53:29.753Z,10.50
2018-09-04T23:55:56.995Z,9.67
2018-09-04T23:58:24.312Z,10.63
